sensor_id;sensor_type;location;lat;lon;timestamp;P1;durP1;ratioP1;P2;durP2;ratioP2
77384;SDS011;66443;49.122;8.346;2023-03-03T00:02:15;61.67;;;25.43;;
77384;SDS011;66443;49.122;8.346;2023-03-03T00:04:40;62.27;;;27.80;;
77384;SDS011;66443;49.122;8.346;2023-03-03T00:07:05;58.87;;;26.40;;
77384;SDS011;66443;49.122;8.346;2023-03-03T00:09:30;62.93;;;26.80;;
77384;SDS011;66443;49.122;8.346;2023-03-03T00:11:56;63.97;;;26.70;;
77384;SDS011;66443;49.122;8.346;2023-03-03T00:14:24;73.70;;;28.77;;
77384;SDS011;66443;49.122;8.346;2023-03-03T00:16:52;59.63;;;27.03;;
77384;SDS011;66443;49.122;8.346;2023-03-03T00:19:18;67.97;;;29.13;;
77384;SDS011;66443;49.122;8.346;2023-03-03T00:21:44;61.17;;;25.90;;
77384;SDS011;66443;49.122;8.346;2023-03-03T00:26:37;64.73;;;27.47;;
77384;SDS011;66443;49.122;8.346;2023-03-03T00:29:23;62.87;;;27.70;;
77384;SDS011;66443;49.122;8.346;2023-03-03T00:31:50;62.50;;;27.03;;
77384;SDS011;66443;49.122;8.346;2023-03-03T00:36:41;67.43;;;27.45;;
77384;SDS011;66443;49.122;8.346;2023-03-03T00:39:17;59.93;;;26.77;;
77384;SDS011;66443;49.122;8.346;2023-03-03T00:41:42;67.30;;;26.63;;
77384;SDS011;66443;49.122;8.346;2023-03-03T00:46:53;74.17;;;27.60;;
77384;SDS011;66443;49.122;8.346;2023-03-03T00:49:22;59.57;;;27.57;;
77384;SDS011;66443;49.122;8.346;2023-03-03T00:51:48;69.53;;;28.30;;
77384;SDS011;66443;49.122;8.346;2023-03-03T00:54:13;71.60;;;28.23;;
77384;SDS011;66443;49.122;8.346;2023-03-03T00:56:39;67.50;;;27.40;;
77384;SDS011;66443;49.122;8.346;2023-03-03T00:59:04;70.50;;;28.43;;
77384;SDS011;66443;49.122;8.346;2023-03-03T01:01:29;69.40;;;27.97;;
77384;SDS011;66443;49.122;8.346;2023-03-03T01:03:54;65.10;;;27.50;;
77384;SDS011;66443;49.122;8.346;2023-03-03T01:06:20;72.47;;;29.07;;
77384;SDS011;66443;49.122;8.346;2023-03-03T01:08:45;66.17;;;26.47;;
77384;SDS011;66443;49.122;8.346;2023-03-03T01:11:14;76.40;;;28.57;;
77384;SDS011;66443;49.122;8.346;2023-03-03T01:13:42;75.60;;;28.50;;
77384;SDS011;66443;49.122;8.346;2023-03-03T01:16:08;71.17;;;27.73;;
77384;SDS011;66443;49.122;8.346;2023-03-03T01:18:34;78.20;;;27.30;;
77384;SDS011;66443;49.122;8.346;2023-03-03T01:20:59;79.10;;;29.53;;
77384;SDS011;66443;49.122;8.346;2023-03-03T01:23:25;73.50;;;29.90;;
77384;SDS011;66443;49.122;8.346;2023-03-03T01:25:51;82.17;;;30.93;;
77384;SDS011;66443;49.122;8.346;2023-03-03T01:28:16;64.37;;;27.50;;
77384;SDS011;66443;49.122;8.346;2023-03-03T01:30:41;69.00;;;29.13;;
77384;SDS011;66443;49.122;8.346;2023-03-03T01:33:06;80.20;;;29.23;;
77384;SDS011;66443;49.122;8.346;2023-03-03T01:35:31;73.13;;;29.03;;
77384;SDS011;66443;49.122;8.346;2023-03-03T01:37:57;61.77;;;27.73;;
77384;SDS011;66443;49.122;8.346;2023-03-03T01:40:24;71.77;;;28.53;;
77384;SDS011;66443;49.122;8.346;2023-03-03T01:42:49;73.07;;;29.83;;
77384;SDS011;66443;49.122;8.346;2023-03-03T01:47:43;73.60;;;28.55;;
77384;SDS011;66443;49.122;8.346;2023-03-03T01:50:11;85.63;;;31.77;;
77384;SDS011;66443;49.122;8.346;2023-03-03T01:52:39;85.03;;;30.63;;
77384;SDS011;66443;49.122;8.346;2023-03-03T01:55:06;73.53;;;28.87;;
77384;SDS011;66443;49.122;8.346;2023-03-03T01:57:35;84.43;;;31.73;;
77384;SDS011;66443;49.122;8.346;2023-03-03T02:00:02;78.00;;;29.33;;
77384;SDS011;66443;49.122;8.346;2023-03-03T02:02:29;76.30;;;31.40;;
77384;SDS011;66443;49.122;8.346;2023-03-03T02:04:55;78.13;;;29.07;;
77384;SDS011;66443;49.122;8.346;2023-03-03T02:07:20;66.63;;;27.50;;
77384;SDS011;66443;49.122;8.346;2023-03-03T02:09:56;75.20;;;27.67;;
77384;SDS011;66443;49.122;8.346;2023-03-03T02:12:25;74.10;;;28.83;;
77384;SDS011;66443;49.122;8.346;2023-03-03T02:14:51;72.97;;;28.70;;
77384;SDS011;66443;49.122;8.346;2023-03-03T02:17:16;75.50;;;29.20;;
77384;SDS011;66443;49.122;8.346;2023-03-03T02:19:51;67.77;;;27.37;;
77384;SDS011;66443;49.122;8.346;2023-03-03T02:22:20;70.57;;;27.60;;
77384;SDS011;66443;49.122;8.346;2023-03-03T02:24:51;70.67;;;26.03;;
77384;SDS011;66443;49.122;8.346;2023-03-03T02:27:18;69.33;;;28.07;;
77384;SDS011;66443;49.122;8.346;2023-03-03T02:29:43;62.20;;;25.33;;
77384;SDS011;66443;49.122;8.346;2023-03-03T02:32:08;71.67;;;27.47;;
77384;SDS011;66443;49.122;8.346;2023-03-03T02:34:50;66.63;;;24.73;;
77384;SDS011;66443;49.122;8.346;2023-03-03T02:37:16;61.63;;;24.50;;
77384;SDS011;66443;49.122;8.346;2023-03-03T02:39:42;66.97;;;26.17;;
77384;SDS011;66443;49.122;8.346;2023-03-03T02:42:08;58.07;;;24.13;;
77384;SDS011;66443;49.122;8.346;2023-03-03T02:44:37;74.03;;;25.80;;
77384;SDS011;66443;49.122;8.346;2023-03-03T02:47:02;68.47;;;25.73;;
77384;SDS011;66443;49.122;8.346;2023-03-03T02:49:28;58.93;;;23.93;;
77384;SDS011;66443;49.122;8.346;2023-03-03T02:51:55;60.67;;;24.07;;
77384;SDS011;66443;49.122;8.346;2023-03-03T02:54:21;54.87;;;23.17;;
77384;SDS011;66443;49.122;8.346;2023-03-03T02:56:47;48.97;;;22.63;;
77384;SDS011;66443;49.122;8.346;2023-03-03T02:59:13;51.40;;;22.03;;
77384;SDS011;66443;49.122;8.346;2023-03-03T03:01:38;51.17;;;22.13;;
77384;SDS011;66443;49.122;8.346;2023-03-03T03:04:08;54.63;;;22.83;;
77384;SDS011;66443;49.122;8.346;2023-03-03T03:06:33;52.23;;;22.40;;
77384;SDS011;66443;49.122;8.346;2023-03-03T03:08:59;51.07;;;22.00;;
77384;SDS011;66443;49.122;8.346;2023-03-03T03:11:24;49.53;;;21.47;;
77384;SDS011;66443;49.122;8.346;2023-03-03T03:13:49;48.00;;;23.33;;
77384;SDS011;66443;49.122;8.346;2023-03-03T03:16:15;61.43;;;23.63;;
77384;SDS011;66443;49.122;8.346;2023-03-03T03:18:41;54.90;;;23.47;;
77384;SDS011;66443;49.122;8.346;2023-03-03T03:21:07;50.00;;;21.97;;
77384;SDS011;66443;49.122;8.346;2023-03-03T03:23:33;58.47;;;23.90;;
77384;SDS011;66443;49.122;8.346;2023-03-03T03:25:58;56.57;;;22.93;;
77384;SDS011;66443;49.122;8.346;2023-03-03T03:28:23;51.87;;;22.83;;
77384;SDS011;66443;49.122;8.346;2023-03-03T03:30:49;53.87;;;21.60;;
77384;SDS011;66443;49.122;8.346;2023-03-03T03:33:15;42.93;;;19.67;;
77384;SDS011;66443;49.122;8.346;2023-03-03T03:35:40;38.57;;;19.40;;
77384;SDS011;66443;49.122;8.346;2023-03-03T03:38:09;40.53;;;19.57;;
77384;SDS011;66443;49.122;8.346;2023-03-03T03:40:34;40.67;;;19.73;;
77384;SDS011;66443;49.122;8.346;2023-03-03T03:42:59;41.53;;;19.40;;
77384;SDS011;66443;49.122;8.346;2023-03-03T03:45:25;43.80;;;19.30;;
77384;SDS011;66443;49.122;8.346;2023-03-03T03:47:50;43.80;;;19.17;;
77384;SDS011;66443;49.122;8.346;2023-03-03T03:50:15;37.27;;;18.00;;
77384;SDS011;66443;49.122;8.346;2023-03-03T03:52:40;43.00;;;17.70;;
77384;SDS011;66443;49.122;8.346;2023-03-03T03:55:07;34.80;;;18.00;;
77384;SDS011;66443;49.122;8.346;2023-03-03T03:57:32;40.17;;;19.33;;
77384;SDS011;66443;49.122;8.346;2023-03-03T03:59:58;42.53;;;18.30;;
77384;SDS011;66443;49.122;8.346;2023-03-03T04:02:23;32.20;;;16.07;;
77384;SDS011;66443;49.122;8.346;2023-03-03T04:04:48;39.77;;;17.93;;
77384;SDS011;66443;49.122;8.346;2023-03-03T04:07:13;46.83;;;20.23;;
77384;SDS011;66443;49.122;8.346;2023-03-03T04:09:39;47.17;;;19.83;;
77384;SDS011;66443;49.122;8.346;2023-03-03T04:12:04;54.03;;;20.53;;
77384;SDS011;66443;49.122;8.346;2023-03-03T04:14:29;41.20;;;20.43;;
77384;SDS011;66443;49.122;8.346;2023-03-03T04:16:54;42.23;;;19.80;;
77384;SDS011;66443;49.122;8.346;2023-03-03T04:19:20;43.33;;;20.77;;
77384;SDS011;66443;49.122;8.346;2023-03-03T04:21:45;45.13;;;19.17;;
77384;SDS011;66443;49.122;8.346;2023-03-03T04:24:10;40.93;;;19.23;;
77384;SDS011;66443;49.122;8.346;2023-03-03T04:26:35;41.00;;;20.07;;
77384;SDS011;66443;49.122;8.346;2023-03-03T04:29:01;45.90;;;21.37;;
77384;SDS011;66443;49.122;8.346;2023-03-03T04:31:26;42.57;;;21.30;;
77384;SDS011;66443;49.122;8.346;2023-03-03T04:33:51;43.50;;;20.27;;
77384;SDS011;66443;49.122;8.346;2023-03-03T04:36:17;46.80;;;20.07;;
77384;SDS011;66443;49.122;8.346;2023-03-03T04:38:42;48.60;;;21.33;;
77384;SDS011;66443;49.122;8.346;2023-03-03T04:41:08;49.40;;;22.20;;
77384;SDS011;66443;49.122;8.346;2023-03-03T04:43:33;56.50;;;22.03;;
77384;SDS011;66443;49.122;8.346;2023-03-03T04:45:58;53.50;;;22.13;;
77384;SDS011;66443;49.122;8.346;2023-03-03T04:48:23;51.20;;;21.80;;
77384;SDS011;66443;49.122;8.346;2023-03-03T04:50:49;63.03;;;23.20;;
77384;SDS011;66443;49.122;8.346;2023-03-03T04:53:14;54.07;;;21.90;;
77384;SDS011;66443;49.122;8.346;2023-03-03T04:55:39;55.07;;;22.87;;
77384;SDS011;66443;49.122;8.346;2023-03-03T04:58:05;51.22;;;21.98;;
77384;SDS011;66443;49.122;8.346;2023-03-03T05:00:30;59.87;;;23.20;;
77384;SDS011;66443;49.122;8.346;2023-03-03T05:02:55;57.40;;;23.53;;
77384;SDS011;66443;49.122;8.346;2023-03-03T05:05:21;59.03;;;24.93;;
77384;SDS011;66443;49.122;8.346;2023-03-03T05:07:46;56.67;;;21.90;;
77384;SDS011;66443;49.122;8.346;2023-03-03T05:10:11;54.87;;;23.57;;
77384;SDS011;66443;49.122;8.346;2023-03-03T05:12:36;56.30;;;23.07;;
77384;SDS011;66443;49.122;8.346;2023-03-03T05:15:02;59.80;;;22.90;;
77384;SDS011;66443;49.122;8.346;2023-03-03T05:17:27;59.60;;;22.70;;
77384;SDS011;66443;49.122;8.346;2023-03-03T05:19:52;53.70;;;22.87;;
77384;SDS011;66443;49.122;8.346;2023-03-03T05:22:18;61.63;;;24.23;;
77384;SDS011;66443;49.122;8.346;2023-03-03T05:24:43;68.47;;;25.27;;
77384;SDS011;66443;49.122;8.346;2023-03-03T05:27:08;59.03;;;22.97;;
77384;SDS011;66443;49.122;8.346;2023-03-03T05:29:33;58.27;;;24.17;;
77384;SDS011;66443;49.122;8.346;2023-03-03T05:31:59;54.50;;;23.33;;
77384;SDS011;66443;49.122;8.346;2023-03-03T05:34:24;54.27;;;23.03;;
77384;SDS011;66443;49.122;8.346;2023-03-03T05:36:49;55.57;;;24.13;;
77384;SDS011;66443;49.122;8.346;2023-03-03T05:39:15;66.17;;;23.90;;
77384;SDS011;66443;49.122;8.346;2023-03-03T05:41:40;48.37;;;21.43;;
77384;SDS011;66443;49.122;8.346;2023-03-03T05:44:05;52.17;;;22.40;;
77384;SDS011;66443;49.122;8.346;2023-03-03T05:46:30;55.80;;;23.43;;
77384;SDS011;66443;49.122;8.346;2023-03-03T05:48:56;48.20;;;21.58;;
77384;SDS011;66443;49.122;8.346;2023-03-03T05:51:21;58.77;;;21.57;;
77384;SDS011;66443;49.122;8.346;2023-03-03T05:53:46;54.67;;;23.37;;
77384;SDS011;66443;49.122;8.346;2023-03-03T05:56:11;50.30;;;23.03;;
77384;SDS011;66443;49.122;8.346;2023-03-03T05:58:36;63.23;;;25.13;;
77384;SDS011;66443;49.122;8.346;2023-03-03T06:01:02;60.00;;;23.97;;
77384;SDS011;66443;49.122;8.346;2023-03-03T06:03:27;61.20;;;24.33;;
77384;SDS011;66443;49.122;8.346;2023-03-03T06:05:52;61.83;;;23.97;;
77384;SDS011;66443;49.122;8.346;2023-03-03T06:08:17;64.90;;;24.83;;
77384;SDS011;66443;49.122;8.346;2023-03-03T06:10:42;72.13;;;26.83;;
77384;SDS011;66443;49.122;8.346;2023-03-03T06:13:08;68.00;;;25.50;;
77384;SDS011;66443;49.122;8.346;2023-03-03T06:15:33;54.80;;;24.40;;
77384;SDS011;66443;49.122;8.346;2023-03-03T06:17:58;60.73;;;23.90;;
77384;SDS011;66443;49.122;8.346;2023-03-03T06:20:24;62.47;;;25.60;;
77384;SDS011;66443;49.122;8.346;2023-03-03T06:22:49;57.53;;;25.73;;
77384;SDS011;66443;49.122;8.346;2023-03-03T06:25:14;65.60;;;26.43;;
77384;SDS011;66443;49.122;8.346;2023-03-03T06:27:39;87.73;;;31.93;;
77384;SDS011;66443;49.122;8.346;2023-03-03T06:30:05;85.13;;;28.13;;
77384;SDS011;66443;49.122;8.346;2023-03-03T06:32:30;61.90;;;27.27;;
77384;SDS011;66443;49.122;8.346;2023-03-03T06:34:55;92.90;;;34.97;;
77384;SDS011;66443;49.122;8.346;2023-03-03T06:37:20;98.63;;;37.93;;
77384;SDS011;66443;49.122;8.346;2023-03-03T06:39:45;84.83;;;33.47;;
77384;SDS011;66443;49.122;8.346;2023-03-03T06:42:11;96.40;;;34.13;;
77384;SDS011;66443;49.122;8.346;2023-03-03T06:44:36;109.50;;;37.30;;
77384;SDS011;66443;49.122;8.346;2023-03-03T06:47:01;111.97;;;38.87;;
77384;SDS011;66443;49.122;8.346;2023-03-03T06:49:26;111.30;;;39.33;;
77384;SDS011;66443;49.122;8.346;2023-03-03T06:51:52;83.07;;;29.33;;
77384;SDS011;66443;49.122;8.346;2023-03-03T06:54:18;60.47;;;25.50;;
77384;SDS011;66443;49.122;8.346;2023-03-03T06:56:44;61.77;;;26.20;;
77384;SDS011;66443;49.122;8.346;2023-03-03T06:59:16;55.40;;;25.20;;
77384;SDS011;66443;49.122;8.346;2023-03-03T07:01:42;54.80;;;25.13;;
77384;SDS011;66443;49.122;8.346;2023-03-03T07:04:49;56.63;;;24.93;;
77384;SDS011;66443;49.122;8.346;2023-03-03T07:06:57;61.43;;;25.67;;
77384;SDS011;66443;49.122;8.346;2023-03-03T07:09:25;48.77;;;23.07;;
77384;SDS011;66443;49.122;8.346;2023-03-03T07:11:51;54.43;;;24.53;;
77384;SDS011;66443;49.122;8.346;2023-03-03T07:14:17;53.57;;;22.90;;
77384;SDS011;66443;49.122;8.346;2023-03-03T07:16:43;57.87;;;24.23;;
77384;SDS011;66443;49.122;8.346;2023-03-03T07:19:22;46.57;;;23.10;;
77384;SDS011;66443;49.122;8.346;2023-03-03T07:21:51;60.60;;;24.20;;
77384;SDS011;66443;49.122;8.346;2023-03-03T07:26:45;55.27;;;23.93;;
77384;SDS011;66443;49.122;8.346;2023-03-03T07:31:39;60.30;;;26.00;;
77384;SDS011;66443;49.122;8.346;2023-03-03T07:36:45;60.53;;;27.13;;
77384;SDS011;66443;49.122;8.346;2023-03-03T07:41:51;100.67;;;37.70;;
77384;SDS011;66443;49.122;8.346;2023-03-03T07:44:29;77.67;;;34.63;;
77384;SDS011;66443;49.122;8.346;2023-03-03T07:46:58;65.40;;;31.17;;
77384;SDS011;66443;49.122;8.346;2023-03-03T07:49:34;53.27;;;27.53;;
77384;SDS011;66443;49.122;8.346;2023-03-03T07:52:00;60.43;;;27.10;;
77384;SDS011;66443;49.122;8.346;2023-03-03T07:54:30;48.77;;;25.20;;
77384;SDS011;66443;49.122;8.346;2023-03-03T07:57:21;50.13;;;24.67;;
77384;SDS011;66443;49.122;8.346;2023-03-03T07:59:48;44.87;;;23.30;;
77384;SDS011;66443;49.122;8.346;2023-03-03T08:04:58;37.57;;;20.50;;
77384;SDS011;66443;49.122;8.346;2023-03-03T08:07:23;35.03;;;20.20;;
77384;SDS011;66443;49.122;8.346;2023-03-03T08:09:49;38.93;;;21.60;;
77384;SDS011;66443;49.122;8.346;2023-03-03T08:12:28;32.33;;;21.17;;
77384;SDS011;66443;49.122;8.346;2023-03-03T08:14:55;39.10;;;20.93;;
77384;SDS011;66443;49.122;8.346;2023-03-03T08:17:22;40.40;;;22.27;;
77384;SDS011;66443;49.122;8.346;2023-03-03T08:19:48;37.90;;;20.37;;
77384;SDS011;66443;49.122;8.346;2023-03-03T08:22:15;36.53;;;20.57;;
77384;SDS011;66443;49.122;8.346;2023-03-03T08:24:41;41.13;;;22.33;;
77384;SDS011;66443;49.122;8.346;2023-03-03T08:27:06;34.50;;;21.63;;
77384;SDS011;66443;49.122;8.346;2023-03-03T08:29:32;38.30;;;21.47;;
77384;SDS011;66443;49.122;8.346;2023-03-03T08:31:57;37.07;;;21.60;;
77384;SDS011;66443;49.122;8.346;2023-03-03T08:34:22;34.50;;;21.43;;
77384;SDS011;66443;49.122;8.346;2023-03-03T08:36:47;40.33;;;21.30;;
77384;SDS011;66443;49.122;8.346;2023-03-03T08:39:13;40.10;;;21.97;;
77384;SDS011;66443;49.122;8.346;2023-03-03T08:41:38;45.13;;;22.57;;
77384;SDS011;66443;49.122;8.346;2023-03-03T08:44:07;36.70;;;21.20;;
77384;SDS011;66443;49.122;8.346;2023-03-03T08:46:32;36.77;;;22.13;;
77384;SDS011;66443;49.122;8.346;2023-03-03T08:48:57;35.93;;;20.63;;
77384;SDS011;66443;49.122;8.346;2023-03-03T08:51:23;37.57;;;20.93;;
77384;SDS011;66443;49.122;8.346;2023-03-03T08:53:49;36.63;;;20.67;;
77384;SDS011;66443;49.122;8.346;2023-03-03T08:56:14;39.17;;;21.37;;
77384;SDS011;66443;49.122;8.346;2023-03-03T08:58:39;39.27;;;22.20;;
77384;SDS011;66443;49.122;8.346;2023-03-03T09:01:06;35.27;;;22.67;;
77384;SDS011;66443;49.122;8.346;2023-03-03T09:03:31;37.87;;;21.27;;
77384;SDS011;66443;49.122;8.346;2023-03-03T09:05:56;41.83;;;23.00;;
77384;SDS011;66443;49.122;8.346;2023-03-03T09:08:21;36.30;;;21.53;;
77384;SDS011;66443;49.122;8.346;2023-03-03T09:10:46;44.47;;;23.03;;
77384;SDS011;66443;49.122;8.346;2023-03-03T09:13:16;36.70;;;22.50;;
77384;SDS011;66443;49.122;8.346;2023-03-03T09:15:43;36.60;;;21.93;;
77384;SDS011;66443;49.122;8.346;2023-03-03T09:18:21;40.30;;;22.67;;
77384;SDS011;66443;49.122;8.346;2023-03-03T09:23:28;40.53;;;22.67;;
77384;SDS011;66443;49.122;8.346;2023-03-03T09:25:55;46.20;;;23.93;;
77384;SDS011;66443;49.122;8.346;2023-03-03T09:28:25;39.13;;;22.47;;
77384;SDS011;66443;49.122;8.346;2023-03-03T09:30:50;40.63;;;22.23;;
77384;SDS011;66443;49.122;8.346;2023-03-03T09:35:51;38.10;;;22.30;;
77384;SDS011;66443;49.122;8.346;2023-03-03T09:38:25;36.03;;;22.67;;
77384;SDS011;66443;49.122;8.346;2023-03-03T09:46:13;38.03;;;22.17;;
77384;SDS011;66443;49.122;8.346;2023-03-03T09:53:47;39.57;;;22.83;;
77384;SDS011;66443;49.122;8.346;2023-03-03T09:56:18;38.43;;;22.10;;
77384;SDS011;66443;49.122;8.346;2023-03-03T10:01:36;30.50;;;20.40;;
77384;SDS011;66443;49.122;8.346;2023-03-03T10:17:41;39.87;;;21.90;;
77384;SDS011;66443;49.122;8.346;2023-03-03T10:20:27;32.07;;;19.23;;
77384;SDS011;66443;49.122;8.346;2023-03-03T10:23:01;34.17;;;19.80;;
77384;SDS011;66443;49.122;8.346;2023-03-03T10:25:36;34.27;;;20.33;;
77384;SDS011;66443;49.122;8.346;2023-03-03T10:38:48;26.27;;;19.33;;
77384;SDS011;66443;49.122;8.346;2023-03-03T10:41:28;31.70;;;21.33;;
77384;SDS011;66443;49.122;8.346;2023-03-03T10:54:02;35.13;;;20.33;;
77384;SDS011;66443;49.122;8.346;2023-03-03T10:56:46;36.90;;;21.40;;
77384;SDS011;66443;49.122;8.346;2023-03-03T10:59:33;36.73;;;20.63;;
77384;SDS011;66443;49.122;8.346;2023-03-03T11:02:02;38.83;;;21.80;;
77384;SDS011;66443;49.122;8.346;2023-03-03T11:04:41;28.43;;;18.20;;
77384;SDS011;66443;49.122;8.346;2023-03-03T11:14:30;32.13;;;21.47;;
77384;SDS011;66443;49.122;8.346;2023-03-03T11:17:12;32.93;;;19.60;;
77384;SDS011;66443;49.122;8.346;2023-03-03T11:19:53;36.03;;;20.53;;
77384;SDS011;66443;49.122;8.346;2023-03-03T11:22:36;27.17;;;19.53;;
77384;SDS011;66443;49.122;8.346;2023-03-03T11:25:07;32.13;;;20.37;;
77384;SDS011;66443;49.122;8.346;2023-03-03T11:28:01;29.73;;;19.80;;
77384;SDS011;66443;49.122;8.346;2023-03-03T11:30:30;30.57;;;19.77;;
77384;SDS011;66443;49.122;8.346;2023-03-03T11:35:34;35.15;;;20.58;;
77384;SDS011;66443;49.122;8.346;2023-03-03T11:38:10;32.60;;;20.13;;
77384;SDS011;66443;49.122;8.346;2023-03-03T11:40:54;27.40;;;18.77;;
77384;SDS011;66443;49.122;8.346;2023-03-03T11:43:31;28.87;;;19.40;;
77384;SDS011;66443;49.122;8.346;2023-03-03T11:45:59;29.10;;;19.63;;
77384;SDS011;66443;49.122;8.346;2023-03-03T11:48:35;26.73;;;18.57;;
77384;SDS011;66443;49.122;8.346;2023-03-03T11:51:03;31.33;;;20.13;;
77384;SDS011;66443;49.122;8.346;2023-03-03T12:01:38;29.60;;;20.10;;
77384;SDS011;66443;49.122;8.346;2023-03-03T12:04:11;31.53;;;20.50;;
77384;SDS011;66443;49.122;8.346;2023-03-03T12:11:50;30.40;;;20.67;;
77384;SDS011;66443;49.122;8.346;2023-03-03T12:24:17;33.03;;;21.60;;
77384;SDS011;66443;49.122;8.346;2023-03-03T12:26:57;31.80;;;20.77;;
77384;SDS011;66443;49.122;8.346;2023-03-03T12:32:14;31.30;;;20.10;;
77384;SDS011;66443;49.122;8.346;2023-03-03T12:40:32;37.47;;;22.70;;
77384;SDS011;66443;49.122;8.346;2023-03-03T12:45:29;37.10;;;21.85;;
77384;SDS011;66443;49.122;8.346;2023-03-03T12:47:59;29.93;;;21.00;;
77384;SDS011;66443;49.122;8.346;2023-03-03T12:53:17;30.80;;;20.97;;
77384;SDS011;66443;49.122;8.346;2023-03-03T12:58:22;38.80;;;21.47;;
77384;SDS011;66443;49.122;8.346;2023-03-03T13:08:35;32.37;;;23.80;;
77384;SDS011;66443;49.122;8.346;2023-03-03T13:11:10;30.37;;;22.97;;
77384;SDS011;66443;49.122;8.346;2023-03-03T13:16:13;33.87;;;23.30;;
77384;SDS011;66443;49.122;8.346;2023-03-03T13:21:25;33.60;;;24.27;;
77384;SDS011;66443;49.122;8.346;2023-03-03T13:24:01;33.67;;;23.30;;
77384;SDS011;66443;49.122;8.346;2023-03-03T13:31:21;31.00;;;25.17;;
77384;SDS011;66443;49.122;8.346;2023-03-03T13:33:56;26.53;;;23.67;;
77384;SDS011;66443;49.122;8.346;2023-03-03T13:36:27;30.70;;;25.10;;
77384;SDS011;66443;49.122;8.346;2023-03-03T13:38:56;28.10;;;23.83;;
77384;SDS011;66443;49.122;8.346;2023-03-03T13:41:25;29.80;;;24.43;;
77384;SDS011;66443;49.122;8.346;2023-03-03T13:43:54;26.57;;;23.80;;
77384;SDS011;66443;49.122;8.346;2023-03-03T13:51:36;29.73;;;25.17;;
77384;SDS011;66443;49.122;8.346;2023-03-03T13:59:45;25.80;;;23.17;;
77384;SDS011;66443;49.122;8.346;2023-03-03T14:02:22;25.93;;;23.13;;
77384;SDS011;66443;49.122;8.346;2023-03-03T14:07:36;28.63;;;23.40;;
77384;SDS011;66443;49.122;8.346;2023-03-03T14:12:39;31.60;;;23.73;;
77384;SDS011;66443;49.122;8.346;2023-03-03T14:20:32;29.33;;;25.80;;
77384;SDS011;66443;49.122;8.346;2023-03-03T14:22:58;26.70;;;23.83;;
77384;SDS011;66443;49.122;8.346;2023-03-03T14:25:25;28.83;;;23.73;;
77384;SDS011;66443;49.122;8.346;2023-03-03T14:28:10;27.47;;;24.03;;
77384;SDS011;66443;49.122;8.346;2023-03-03T14:30:39;29.40;;;23.63;;
77384;SDS011;66443;49.122;8.346;2023-03-03T14:35:39;26.27;;;23.50;;
77384;SDS011;66443;49.122;8.346;2023-03-03T14:38:08;29.23;;;22.57;;
77384;SDS011;66443;49.122;8.346;2023-03-03T14:40:34;27.87;;;23.67;;
77384;SDS011;66443;49.122;8.346;2023-03-03T14:43:02;27.80;;;23.73;;
77384;SDS011;66443;49.122;8.346;2023-03-03T14:45:33;29.60;;;22.87;;
77384;SDS011;66443;49.122;8.346;2023-03-03T14:48:00;26.50;;;23.40;;
77384;SDS011;66443;49.122;8.346;2023-03-03T14:50:33;24.17;;;21.57;;
77384;SDS011;66443;49.122;8.346;2023-03-03T14:53:03;29.73;;;22.67;;
77384;SDS011;66443;49.122;8.346;2023-03-03T14:55:32;27.10;;;21.90;;
77384;SDS011;66443;49.122;8.346;2023-03-03T14:57:57;28.27;;;24.10;;
77384;SDS011;66443;49.122;8.346;2023-03-03T15:03:17;25.63;;;22.43;;
77384;SDS011;66443;49.122;8.346;2023-03-03T15:05:48;26.00;;;21.97;;
77384;SDS011;66443;49.122;8.346;2023-03-03T15:08:14;28.27;;;22.47;;
77384;SDS011;66443;49.122;8.346;2023-03-03T15:10:40;27.23;;;23.37;;
77384;SDS011;66443;49.122;8.346;2023-03-03T15:15:34;26.03;;;22.37;;
77384;SDS011;66443;49.122;8.346;2023-03-03T15:18:03;27.80;;;21.30;;
77384;SDS011;66443;49.122;8.346;2023-03-03T15:20:47;24.57;;;21.33;;
77384;SDS011;66443;49.122;8.346;2023-03-03T15:25:58;28.53;;;23.93;;
77384;SDS011;66443;49.122;8.346;2023-03-03T15:30:52;25.23;;;21.70;;
77384;SDS011;66443;49.122;8.346;2023-03-03T15:33:28;27.40;;;21.67;;
77384;SDS011;66443;49.122;8.346;2023-03-03T15:40:57;29.87;;;22.47;;
77384;SDS011;66443;49.122;8.346;2023-03-03T15:43:36;27.27;;;23.00;;
77384;SDS011;66443;49.122;8.346;2023-03-03T15:46:22;26.00;;;21.57;;
77384;SDS011;66443;49.122;8.346;2023-03-03T15:53:52;26.83;;;21.20;;
77384;SDS011;66443;49.122;8.346;2023-03-03T16:03:44;22.93;;;20.43;;
77384;SDS011;66443;49.122;8.346;2023-03-03T16:06:21;29.67;;;21.67;;
77384;SDS011;66443;49.122;8.346;2023-03-03T16:11:53;30.50;;;21.03;;
77384;SDS011;66443;49.122;8.346;2023-03-03T16:14:22;25.37;;;21.33;;
77384;SDS011;66443;49.122;8.346;2023-03-03T16:16:53;28.37;;;20.67;;
77384;SDS011;66443;49.122;8.346;2023-03-03T16:19:27;42.73;;;25.03;;
77384;SDS011;66443;49.122;8.346;2023-03-03T16:26:53;24.00;;;19.17;;
77384;SDS011;66443;49.122;8.346;2023-03-03T16:29:36;28.53;;;20.03;;
77384;SDS011;66443;49.122;8.346;2023-03-03T16:32:04;30.07;;;20.03;;
77384;SDS011;66443;49.122;8.346;2023-03-03T16:49:43;25.87;;;17.60;;
77384;SDS011;66443;49.122;8.346;2023-03-03T16:52:13;27.20;;;18.10;;
77384;SDS011;66443;49.122;8.346;2023-03-03T16:57:10;31.98;;;20.00;;
77384;SDS011;66443;49.122;8.346;2023-03-03T17:02:13;24.30;;;16.23;;
77384;SDS011;66443;49.122;8.346;2023-03-03T17:04:51;25.07;;;15.87;;
77384;SDS011;66443;49.122;8.346;2023-03-03T17:17:42;29.43;;;16.00;;
77384;SDS011;66443;49.122;8.346;2023-03-03T17:27:50;32.67;;;17.70;;
77384;SDS011;66443;49.122;8.346;2023-03-03T17:32:46;33.73;;;17.30;;
77384;SDS011;66443;49.122;8.346;2023-03-03T17:37:53;30.80;;;16.73;;
77384;SDS011;66443;49.122;8.346;2023-03-03T17:40:41;26.13;;;15.27;;
77384;SDS011;66443;49.122;8.346;2023-03-03T17:43:19;23.53;;;15.50;;
77384;SDS011;66443;49.122;8.346;2023-03-03T17:45:46;24.87;;;16.63;;
77384;SDS011;66443;49.122;8.346;2023-03-03T17:51:03;24.47;;;16.07;;
77384;SDS011;66443;49.122;8.346;2023-03-03T17:58:39;23.13;;;15.60;;
77384;SDS011;66443;49.122;8.346;2023-03-03T18:08:57;55.20;;;25.17;;
77384;SDS011;66443;49.122;8.346;2023-03-03T18:11:42;73.43;;;27.00;;
77384;SDS011;66443;49.122;8.346;2023-03-03T18:19:34;21.40;;;13.37;;
77384;SDS011;66443;49.122;8.346;2023-03-03T18:22:06;17.80;;;12.30;;
77384;SDS011;66443;49.122;8.346;2023-03-03T18:37:47;21.27;;;13.80;;
77384;SDS011;66443;49.122;8.346;2023-03-03T18:42:43;25.73;;;15.43;;
77384;SDS011;66443;49.122;8.346;2023-03-03T18:50:38;31.33;;;14.53;;
77384;SDS011;66443;49.122;8.346;2023-03-03T18:55:31;22.00;;;15.70;;
77384;SDS011;66443;49.122;8.346;2023-03-03T19:00:58;37.90;;;19.17;;
77384;SDS011;66443;49.122;8.346;2023-03-03T19:05:58;56.13;;;28.43;;
77384;SDS011;66443;49.122;8.346;2023-03-03T19:08:44;36.07;;;19.80;;
77384;SDS011;66443;49.122;8.346;2023-03-03T19:14:10;34.67;;;18.60;;
77384;SDS011;66443;49.122;8.346;2023-03-03T19:16:36;32.27;;;20.00;;
77384;SDS011;66443;49.122;8.346;2023-03-03T19:19:07;31.53;;;18.23;;
77384;SDS011;66443;49.122;8.346;2023-03-03T19:21:34;28.10;;;18.90;;
77384;SDS011;66443;49.122;8.346;2023-03-03T19:24:00;23.60;;;15.73;;
77384;SDS011;66443;49.122;8.346;2023-03-03T19:31:41;25.20;;;15.70;;
77384;SDS011;66443;49.122;8.346;2023-03-03T19:37:03;28.17;;;15.53;;